Ellen S Bouchard — WRA5918 — position and weather

sailwx.info

Track history (hours):
 
Tides and Currents Weather Stations Pressure Air Temp Water Temp Dewpoint Dewpoint Depression Visibility Wind Speed Wind Dir Waves Ship Positions

Ellen S Bouchard

Owner: BOUCHARD TRANSPORTATION CO, MELVILLE, NY. More information available from US FCC via Universal Licensing System and Coast Guard Vessel Documentation Center.

Last reported at 2018-Feb-19 12:00 UTC. Time now 2018-Feb-19 12:17 UTC.
Position N 39°24' W 075°30'.

Length 148 m; draft 5 m.

Type: Towing. MMSI: 367006570.

Date/timePositionNaut miles runAvg speedWind from/ knotsBaromVisibWave heightAir tempDewpointWater temp
2018-Feb-19 12:00N 39°24' W 075°30'3 6.1
2018-Feb-19 11:30N 39°22' W 075°27'3 6.2
2018-Feb-19 11:00N 39°20' W 075°25'3 6.1
2018-Feb-19 10:30N 39°17' W 075°22'3 6.4
2018-Feb-19 10:00N 39°15' W 075°19'3 6.5
2018-Feb-19 09:30N 39°12' W 075°17'3 6.8
2018-Feb-19 09:00N 39°09' W 075°15'4 7.2
2018-Feb-19 08:30N 39°06' W 075°12'4 7.3
2018-Feb-19 08:00N 39°03' W 075°10'57 6.1
2018-Feb-18 22:34N 39°33' W 074°07'1 8.8
2018-Feb-18 22:26N 39°34' W 074°06'5 8.8
2018-Feb-18 21:51N 39°38' W 074°03'3 9.0
2018-Feb-18 21:30N 39°41' W 074°01'48 9.0
2018-Feb-18 16:11N 40°29' W 073°59'2 9.4
2018-Feb-18 16:00N 40°29' W 074°01'11 1.7
2018-Feb-18 09:38N 40°33' W 074°15'0 0.0
2018-Feb-18 09:30N 40°33' W 074°15'0 0.0
2018-Feb-18 09:00N 40°33' W 074°15'0 0.0
2018-Feb-18 08:30N 40°33' W 074°15'0 0.0
2018-Feb-18 08:00N 40°33' W 074°15'0 0.0
2018-Feb-18 06:17N 40°33' W 074°15'1 2.6
2018-Feb-18 05:57N 40°33' W 074°14'3 7.2
2018-Feb-18 05:30N 40°36' W 074°12'3 6.5
2018-Feb-18 05:00N 40°39' W 074°09'2 3.8
2018-Feb-18 04:30N 40°39' W 074°07'0 0.0
2018-Feb-18 03:59N 40°39' W 074°07'0 0.0
2018-Feb-18 03:30N 40°39' W 074°07'0 0.0
2018-Feb-18 02:59N 40°39' W 074°07'0 0.0
2018-Feb-18 02:29N 40°39' W 074°07'0 0.0
2018-Feb-18 02:00N 40°39' W 074°07'0 0.0
2018-Feb-18 01:29N 40°39' W 074°07'0 0.0
2018-Feb-18 01:00N 40°39' W 074°07'0 0.0
2018-Feb-18 00:30N 40°39' W 074°07'0 0.0
2018-Feb-18 00:00N 40°39' W 074°07'0 0.0
2018-Feb-17 23:30N 40°39' W 074°07'0 0.0
2018-Feb-17 22:59N 40°39' W 074°07'0 0.0
2018-Feb-17 22:30N 40°39' W 074°07'0 0.0
2018-Feb-17 22:00N 40°39' W 074°07'0 0.5
2018-Feb-17 21:30N 40°39' W 074°07'0 0.6
2018-Feb-17 20:59N 40°39' W 074°07'0 0.0
2018-Feb-17 20:30N 40°39' W 074°07'0 0.0
2018-Feb-17 20:00N 40°39' W 074°07'0 0.0
2018-Feb-17 19:30N 40°39' W 074°07'0 0.3
2018-Feb-17 19:00N 40°39' W 074°07'0 0.2
2018-Feb-17 18:29N 40°38' W 074°07'0 0.0
2018-Feb-17 18:00N 40°38' W 074°07'0 0.0
2018-Feb-17 17:29N 40°38' W 074°07'0 0.0
2018-Feb-17 17:00N 40°38' W 074°07'0 0.0
2018-Feb-17 16:29N 40°38' W 074°07'4 7.2
2018-Feb-17 15:59N 40°38' W 074°12'11 0.7
2018-Feb-16 23:32N 40°29' W 074°03'1 7.9
2018-Feb-16 23:27N 40°29' W 074°02'42 7.4
2018-Feb-16 17:49N 39°47' W 073°58'4 7.9
2018-Feb-16 17:16N 39°43' W 073°60'3 7.9
2018-Feb-16 16:57N 39°41' W 074°01'186 8.2
2018-Feb-15 18:12N 36°56' W 075°52'2 8.9
2018-Feb-15 18:00N 36°56' W 075°54'4 8.6
2018-Feb-15 17:30N 36°58' W 075°59'4 8.1
2018-Feb-15 16:58N 37°01' W 076°03'4 7.7
2018-Feb-15 16:29N 37°04' W 076°05'4 7.0
2018-Feb-15 15:56N 37°07' W 076°08'3 7.0
2018-Feb-15 15:28N 37°10' W 076°09'48 7.4
2018-Feb-15 08:59N 37°58' W 076°17'5 8.6
2018-Feb-15 08:26N 38°01' W 076°22'4 8.4
2018-Feb-15 07:57N 38°03' W 076°27'5 8.4
2018-Feb-15 07:24N 38°06' W 076°31'2 4.1
2018-Feb-15 06:58N 38°08' W 076°32'0 0.0
2018-Feb-15 06:21N 38°08' W 076°32'0 0.0
2018-Feb-15 05:59N 38°08' W 076°32'0 0.0
2018-Feb-15 05:25N 38°08' W 076°32'0 0.0
2018-Feb-15 04:59N 38°08' W 076°32'0 0.0
2018-Feb-15 04:26N 38°08' W 076°32'0 0.0
2018-Feb-15 03:56N 38°08' W 076°32'0 0.0
2018-Feb-15 03:28N 38°08' W 076°32'0 0.0
2018-Feb-15 02:58N 38°08' W 076°32'0 0.0
2018-Feb-15 02:29N 38°08' W 076°32'0 0.0
2018-Feb-15 01:45N 38°08' W 076°32'0 0.0
2018-Feb-15 01:30N 38°08' W 076°32'0 0.0
2018-Feb-15 01:00N 38°08' W 076°32'0 0.0
2018-Feb-15 00:26N 38°08' W 076°32'0 0.0
2018-Feb-14 23:58N 38°08' W 076°32'0 0.0
2018-Feb-14 23:28N 38°08' W 076°32'0 0.0
2018-Feb-14 22:58N 38°08' W 076°32'0 0.0
2018-Feb-14 22:27N 38°08' W 076°32'0 0.0
2018-Feb-14 18:07N 38°08' W 076°32'0 0.0
2018-Feb-14 17:53N 38°08' W 076°32'0 0.0
2018-Feb-14 17:28N 38°08' W 076°32'0 0.0
2018-Feb-14 17:00N 38°08' W 076°32'0 0.0
2018-Feb-14 16:28N 38°08' W 076°32'0 0.0
2018-Feb-14 15:58N 38°08' W 076°32'0 0.0
2018-Feb-14 15:27N 38°08' W 076°32'0 0.0
2018-Feb-14 14:57N 38°08' W 076°32'0 0.0
2018-Feb-14 14:30N 38°08' W 076°32'0 0.0
2018-Feb-14 13:56N 38°08' W 076°32'0 0.0
2018-Feb-14 13:24N 38°08' W 076°32'0 0.0
2018-Feb-14 13:00N 38°08' W 076°32'0 0.0
2018-Feb-14 12:30N 38°08' W 076°32'0 0.0
2018-Feb-14 11:57N 38°08' W 076°32'0 0.0
2018-Feb-14 11:25N 38°08' W 076°32'0 0.0
2018-Feb-14 10:56N 38°08' W 076°32'0 0.0
2018-Feb-14 08:03N 38°08' W 076°32'0 0.1
2018-Feb-14 07:59N 38°08' W 076°32'0 0.0
2018-Feb-14 07:21N 38°08' W 076°32'0 0.0
2018-Feb-14 06:58N 38°08' W 076°32'0 0.0
2018-Feb-14 06:29N 38°08' W 076°32'0 0.0
2018-Feb-14 05:57N 38°08' W 076°32'0 0.0
2018-Feb-14 05:28N 38°08' W 076°32'0 0.0
2018-Feb-14 04:57N 38°08' W 076°32'0 0.0
2018-Feb-14 04:28N 38°08' W 076°32'0 0.0
2018-Feb-14 03:58N 38°08' W 076°32'0 0.0
2018-Feb-14 03:21N 38°08' W 076°32'0 0.0
2018-Feb-14 03:00N 38°08' W 076°32'0 0.0
2018-Feb-14 02:27N 38°08' W 076°32'0 0.0
2018-Feb-14 01:55N 38°08' W 076°32'0 0.0
2018-Feb-14 01:28N 38°08' W 076°32'0 0.0
2018-Feb-14 00:58N 38°08' W 076°32'0 0.0
2018-Feb-14 00:27N 38°08' W 076°32'0 0.0
2018-Feb-13 23:55N 38°08' W 076°32'0 0.0
2018-Feb-13 23:26N 38°08' W 076°32'0 0.0
2018-Feb-13 22:50N 38°08' W 076°32'0 0.0
2018-Feb-13 22:30N 38°08' W 076°32'0 0.1
2018-Feb-13 21:51N 38°08' W 076°32'1 0.9
2018-Feb-13 20:24N 38°07' W 076°31'0 0.1
2018-Feb-13 19:59N 38°07' W 076°31'0 0.1
2018-Feb-13 19:17N 38°07' W 076°31'0 0.0
2018-Feb-13 18:38N 38°07' W 076°31'0 0.1
2018-Feb-13 18:27N 38°07' W 076°31'0 0.0
2018-Feb-13 18:00N 38°07' W 076°31'0 0.1
2018-Feb-13 17:25N 38°07' W 076°31'0 0.1
2018-Feb-13 17:00N 38°07' W 076°31'0 0.0
2018-Feb-13 16:27N 38°07' W 076°31'0 0.0
2018-Feb-13 16:00N 38°07' W 076°31'0 0.0
2018-Feb-13 15:27N 38°07' W 076°31'0 0.1
2018-Feb-13 14:55N 38°07' W 076°31'0 0.0
2018-Feb-13 14:28N 38°07' W 076°31'0 0.0
2018-Feb-13 13:44N 38°07' W 076°31'0 0.0
2018-Feb-13 13:30N 38°07' W 076°31'0 0.0
2018-Feb-13 12:54N 38°07' W 076°31'0 0.0
2018-Feb-13 12:29N 38°07' W 076°31'0 0.0
2018-Feb-13 11:59N 38°07' W 076°31'0 0.0
2018-Feb-13 11:26N 38°07' W 076°31'0 0.0
2018-Feb-13 10:48N 38°07' W 076°31'0 0.1
2018-Feb-13 10:27N 38°07' W 076°31'0 0.0
2018-Feb-13 09:43N 38°07' W 076°31'0 0.0
2018-Feb-13 08:35N 38°07' W 076°31'0 0.1
2018-Feb-13 08:24N 38°07' W 076°31'0 0.0
2018-Feb-13 07:59N 38°07' W 076°31'0 0.0
2018-Feb-13 07:19N 38°07' W 076°31'0 0.0
2018-Feb-13 06:54N 38°07' W 076°31'0 0.0
2018-Feb-13 06:11N 38°07' W 076°31'0 0.0
2018-Feb-13 05:51N 38°07' W 076°31'0 0.2
2018-Feb-13 05:24N 38°07' W 076°31'0 0.0
2018-Feb-13 05:00N 38°07' W 076°31'0 0.0
2018-Feb-13 04:07N 38°07' W 076°31'0 0.1
2018-Feb-13 03:59N 38°07' W 076°31'0 0.0
2018-Feb-13 03:27N 38°07' W 076°31'0 0.0
2018-Feb-12 20:34N 38°07' W 076°31'1 2.1
2018-Feb-12 20:12N 38°06' W 076°30'2 8.0
2018-Feb-12 20:00N 38°05' W 076°29'5 8.6
2018-Feb-12 19:28N 38°02' W 076°24'41 7.4
2018-Feb-12 13:56N 38°43' W 076°27'410.0
2018-Feb-12 13:30N 38°48' W 076°25'510.1
2018-Feb-12 13:00N 38°52' W 076°24'510.1
2018-Feb-12 12:29N 38°58' W 076°23'5 9.9
2018-Feb-12 11:56N 39°03' W 076°21'4 9.2
2018-Feb-12 11:29N 39°06' W 076°18'16 8.1
2018-Feb-12 09:32N 39°21' W 076°10'2 8.5
2018-Feb-12 09:15N 39°22' W 076°08'4 8.7
2018-Feb-12 08:51N 39°24' W 076°04'3 8.7
2018-Feb-12 08:30N 39°26' W 076°01'4 8.1
2018-Feb-12 08:00N 39°29' W 075°57'4 7.2
2018-Feb-12 07:30N 39°31' W 075°54'3 6.2
2018-Feb-12 07:00N 39°32' W 075°50'3 6.4
2018-Feb-12 06:30N 39°32' W 075°46'4 7.8
2018-Feb-12 06:00N 39°33' W 075°41'4 7.8
2018-Feb-12 05:30N 39°33' W 075°36'3 5.1
2018-Feb-12 05:00N 39°33' W 075°33'2 4.3
2018-Feb-12 04:30N 39°30' W 075°33'2 4.4
2018-Feb-12 04:00N 39°28' W 075°34'2 4.8
2018-Feb-12 03:30N 39°26' W 075°32'3 6.7
2018-Feb-12 03:00N 39°24' W 075°29'4 7.0
2018-Feb-12 02:30N 39°21' W 075°26'4 7.2
2018-Feb-12 02:00N 39°18' W 075°23'4 7.4
2018-Feb-12 01:30N 39°16' W 075°20'4 7.6
2018-Feb-12 00:57N 39°12' W 075°17'4 7.7
2018-Feb-12 00:27N 39°09' W 075°14'5 7.8
2018-Feb-11 23:50N 39°05' W 075°11'58 5.6
2018-Feb-11 13:34N 39°33' W 074°06'1 8.5
2018-Feb-11 13:27N 39°34' W 074°06'4 8.4
2018-Feb-11 13:00N 39°38' W 074°03'4 8.3
2018-Feb-11 12:30N 39°41' W 074°01'48 8.5
2018-Feb-11 06:48N 40°29' W 073°56'3 7.8
2018-Feb-11 06:29N 40°31' W 073°59'3 6.8
2018-Feb-11 05:58N 40°33' W 074°02'2 4.3
2018-Feb-11 05:30N 40°35' W 074°01'0 0.1
2018-Feb-11 05:00N 40°35' W 074°01'4 7.9
2018-Feb-11 04:30N 40°38' W 074°04'3 4.9
2018-Feb-11 03:59N 40°39' W 074°07'0 0.0
2018-Feb-11 03:30N 40°39' W 074°07'0 0.0
2018-Feb-11 03:00N 40°39' W 074°07'0 0.0
2018-Feb-11 02:24N 40°39' W 074°07'0 0.0
2018-Feb-11 02:00N 40°39' W 074°07'0 0.0
2018-Feb-11 01:29N 40°39' W 074°07'2 5.2
2018-Feb-11 01:00N 40°38' W 074°04'4 7.2
2018-Feb-11 00:30N 40°35' W 074°01'1 1.1
2018-Feb-11 00:00N 40°36' W 074°02'2 3.8
2018-Feb-10 23:30N 40°37' W 074°03'4 8.3
2018-Feb-10 23:00N 40°41' W 074°02'4 8.6
2018-Feb-10 22:30N 40°45' W 074°01'4 8.4
2018-Feb-10 22:00N 40°49' W 073°58'4 8.3
2018-Feb-10 21:29N 40°53' W 073°56'1 0.0
2018-Feb-09 15:00N 40°52' W 073°57'10 6.5
2018-Feb-09 13:30N 40°43' W 074°01'3 7.0
2018-Feb-09 13:00N 40°39' W 074°03'  
Track history (hours):
 
Tides and Currents Weather Stations Pressure Air Temp Water Temp Dewpoint Dewpoint Depression Visibility Wind Speed Wind Dir Waves Ship Positions

Ellen S Bouchard

Owner: BOUCHARD TRANSPORTATION CO, MELVILLE, NY. More information available from US FCC via Universal Licensing System and Coast Guard Vessel Documentation Center.

Last reported at 2018-Feb-19 12:00 UTC. Time now 2018-Feb-19 12:17 UTC.
Position N 39°24' W 075°30'.

Length 148 m; draft 5 m.

Type: Towing. MMSI: 367006570.

Date/timePositionNaut miles runAvg speedWind from/ knotsBaromVisibWave heightAir tempDewpointWater temp
2018-Feb-19 12:00N 39°24' W 075°30'3 6.1
2018-Feb-19 11:30N 39°22' W 075°27'3 6.2
2018-Feb-19 11:00N 39°20' W 075°25'3 6.1
2018-Feb-19 10:30N 39°17' W 075°22'3 6.4
2018-Feb-19 10:00N 39°15' W 075°19'3 6.5
2018-Feb-19 09:30N 39°12' W 075°17'3 6.8
2018-Feb-19 09:00N 39°09' W 075°15'4 7.2
2018-Feb-19 08:30N 39°06' W 075°12'4 7.3
2018-Feb-19 08:00N 39°03' W 075°10'57 6.1
2018-Feb-18 22:34N 39°33' W 074°07'1 8.8
2018-Feb-18 22:26N 39°34' W 074°06'5 8.8
2018-Feb-18 21:51N 39°38' W 074°03'3 9.0
2018-Feb-18 21:30N 39°41' W 074°01'48 9.0
2018-Feb-18 16:11N 40°29' W 073°59'2 9.4
2018-Feb-18 16:00N 40°29' W 074°01'11 1.7
2018-Feb-18 09:38N 40°33' W 074°15'0 0.0
2018-Feb-18 09:30N 40°33' W 074°15'0 0.0
2018-Feb-18 09:00N 40°33' W 074°15'0 0.0
2018-Feb-18 08:30N 40°33' W 074°15'0 0.0
2018-Feb-18 08:00N 40°33' W 074°15'0 0.0
2018-Feb-18 06:17N 40°33' W 074°15'1 2.6
2018-Feb-18 05:57N 40°33' W 074°14'3 7.2
2018-Feb-18 05:30N 40°36' W 074°12'3 6.5
2018-Feb-18 05:00N 40°39' W 074°09'2 3.8
2018-Feb-18 04:30N 40°39' W 074°07'0 0.0
2018-Feb-18 03:59N 40°39' W 074°07'0 0.0
2018-Feb-18 03:30N 40°39' W 074°07'0 0.0
2018-Feb-18 02:59N 40°39' W 074°07'0 0.0
2018-Feb-18 02:29N 40°39' W 074°07'0 0.0
2018-Feb-18 02:00N 40°39' W 074°07'0 0.0
2018-Feb-18 01:29N 40°39' W 074°07'0 0.0
2018-Feb-18 01:00N 40°39' W 074°07'0 0.0
2018-Feb-18 00:30N 40°39' W 074°07'0 0.0
2018-Feb-18 00:00N 40°39' W 074°07'0 0.0
2018-Feb-17 23:30N 40°39' W 074°07'0 0.0
2018-Feb-17 22:59N 40°39' W 074°07'0 0.0
2018-Feb-17 22:30N 40°39' W 074°07'0 0.0
2018-Feb-17 22:00N 40°39' W 074°07'0 0.5
2018-Feb-17 21:30N 40°39' W 074°07'0 0.6
2018-Feb-17 20:59N 40°39' W 074°07'0 0.0
2018-Feb-17 20:30N 40°39' W 074°07'0 0.0
2018-Feb-17 20:00N 40°39' W 074°07'0 0.0
2018-Feb-17 19:30N 40°39' W 074°07'0 0.3
2018-Feb-17 19:00N 40°39' W 074°07'0 0.2
2018-Feb-17 18:29N 40°38' W 074°07'0 0.0
2018-Feb-17 18:00N 40°38' W 074°07'0 0.0
2018-Feb-17 17:29N 40°38' W 074°07'0 0.0
2018-Feb-17 17:00N 40°38' W 074°07'0 0.0
2018-Feb-17 16:29N 40°38' W 074°07'4 7.2
2018-Feb-17 15:59N 40°38' W 074°12'11 0.7
2018-Feb-16 23:32N 40°29' W 074°03'1 7.9
2018-Feb-16 23:27N 40°29' W 074°02'42 7.4
2018-Feb-16 17:49N 39°47' W 073°58'4 7.9
2018-Feb-16 17:16N 39°43' W 073°60'3 7.9
2018-Feb-16 16:57N 39°41' W 074°01'186 8.2
2018-Feb-15 18:12N 36°56' W 075°52'2 8.9
2018-Feb-15 18:00N 36°56' W 075°54'4 8.6
2018-Feb-15 17:30N 36°58' W 075°59'4 8.1
2018-Feb-15 16:58N 37°01' W 076°03'4 7.7
2018-Feb-15 16:29N 37°04' W 076°05'4 7.0
2018-Feb-15 15:56N 37°07' W 076°08'3 7.0
2018-Feb-15 15:28N 37°10' W 076°09'48 7.4
2018-Feb-15 08:59N 37°58' W 076°17'5 8.6
2018-Feb-15 08:26N 38°01' W 076°22'4 8.4
2018-Feb-15 07:57N 38°03' W 076°27'5 8.4
2018-Feb-15 07:24N 38°06' W 076°31'2 4.1
2018-Feb-15 06:58N 38°08' W 076°32'0 0.0
2018-Feb-15 06:21N 38°08' W 076°32'0 0.0
2018-Feb-15 05:59N 38°08' W 076°32'0 0.0
2018-Feb-15 05:25N 38°08' W 076°32'0 0.0
2018-Feb-15 04:59N 38°08' W 076°32'0 0.0
2018-Feb-15 04:26N 38°08' W 076°32'0 0.0
2018-Feb-15 03:56N 38°08' W 076°32'0 0.0
2018-Feb-15 03:28N 38°08' W 076°32'0 0.0
2018-Feb-15 02:58N 38°08' W 076°32'0 0.0
2018-Feb-15 02:29N 38°08' W 076°32'0 0.0
2018-Feb-15 01:45N 38°08' W 076°32'0 0.0
2018-Feb-15 01:30N 38°08' W 076°32'0 0.0
2018-Feb-15 01:00N 38°08' W 076°32'0 0.0
2018-Feb-15 00:26N 38°08' W 076°32'0 0.0
2018-Feb-14 23:58N 38°08' W 076°32'0 0.0
2018-Feb-14 23:28N 38°08' W 076°32'0 0.0
2018-Feb-14 22:58N 38°08' W 076°32'0 0.0
2018-Feb-14 22:27N 38°08' W 076°32'0 0.0
2018-Feb-14 18:07N 38°08' W 076°32'0 0.0
2018-Feb-14 17:53N 38°08' W 076°32'0 0.0
2018-Feb-14 17:28N 38°08' W 076°32'0 0.0
2018-Feb-14 17:00N 38°08' W 076°32'0 0.0
2018-Feb-14 16:28N 38°08' W 076°32'0 0.0
2018-Feb-14 15:58N 38°08' W 076°32'0 0.0
2018-Feb-14 15:27N 38°08' W 076°32'0 0.0
2018-Feb-14 14:57N 38°08' W 076°32'0 0.0
2018-Feb-14 14:30N 38°08' W 076°32'0 0.0
2018-Feb-14 13:56N 38°08' W 076°32'0 0.0
2018-Feb-14 13:24N 38°08' W 076°32'0 0.0
2018-Feb-14 13:00N 38°08' W 076°32'0 0.0
2018-Feb-14 12:30N 38°08' W 076°32'0 0.0
2018-Feb-14 11:57N 38°08' W 076°32'0 0.0
2018-Feb-14 11:25N 38°08' W 076°32'0 0.0
2018-Feb-14 10:56N 38°08' W 076°32'0 0.0
2018-Feb-14 08:03N 38°08' W 076°32'0 0.1
2018-Feb-14 07:59N 38°08' W 076°32'0 0.0
2018-Feb-14 07:21N 38°08' W 076°32'0 0.0
2018-Feb-14 06:58N 38°08' W 076°32'0 0.0
2018-Feb-14 06:29N 38°08' W 076°32'0 0.0
2018-Feb-14 05:57N 38°08' W 076°32'0 0.0
2018-Feb-14 05:28N 38°08' W 076°32'0 0.0
2018-Feb-14 04:57N 38°08' W 076°32'0 0.0
2018-Feb-14 04:28N 38°08' W 076°32'0 0.0
2018-Feb-14 03:58N 38°08' W 076°32'0 0.0
2018-Feb-14 03:21N 38°08' W 076°32'0 0.0
2018-Feb-14 03:00N 38°08' W 076°32'0 0.0
2018-Feb-14 02:27N 38°08' W 076°32'0 0.0
2018-Feb-14 01:55N 38°08' W 076°32'0 0.0
2018-Feb-14 01:28N 38°08' W 076°32'0 0.0
2018-Feb-14 00:58N 38°08' W 076°32'0 0.0
2018-Feb-14 00:27N 38°08' W 076°32'0 0.0
2018-Feb-13 23:55N 38°08' W 076°32'0 0.0
2018-Feb-13 23:26N 38°08' W 076°32'0 0.0
2018-Feb-13 22:50N 38°08' W 076°32'0 0.0
2018-Feb-13 22:30N 38°08' W 076°32'0 0.1
2018-Feb-13 21:51N 38°08' W 076°32'1 0.9
2018-Feb-13 20:24N 38°07' W 076°31'0 0.1
2018-Feb-13 19:59N 38°07' W 076°31'0 0.1
2018-Feb-13 19:17N 38°07' W 076°31'0 0.0
2018-Feb-13 18:38N 38°07' W 076°31'0 0.1
2018-Feb-13 18:27N 38°07' W 076°31'0 0.0
2018-Feb-13 18:00N 38°07' W 076°31'0 0.1
2018-Feb-13 17:25N 38°07' W 076°31'0 0.1
2018-Feb-13 17:00N 38°07' W 076°31'0 0.0
2018-Feb-13 16:27N 38°07' W 076°31'0 0.0
2018-Feb-13 16:00N 38°07' W 076°31'0 0.0
2018-Feb-13 15:27N 38°07' W 076°31'0 0.1
2018-Feb-13 14:55N 38°07' W 076°31'0 0.0
2018-Feb-13 14:28N 38°07' W 076°31'0 0.0
2018-Feb-13 13:44N 38°07' W 076°31'0 0.0
2018-Feb-13 13:30N 38°07' W 076°31'0 0.0
2018-Feb-13 12:54N 38°07' W 076°31'0 0.0
2018-Feb-13 12:29N 38°07' W 076°31'0 0.0
2018-Feb-13 11:59N 38°07' W 076°31'0 0.0
2018-Feb-13 11:26N 38°07' W 076°31'0 0.0
2018-Feb-13 10:48N 38°07' W 076°31'0 0.1
2018-Feb-13 10:27N 38°07' W 076°31'0 0.0
2018-Feb-13 09:43N 38°07' W 076°31'0 0.0
2018-Feb-13 08:35N 38°07' W 076°31'0 0.1
2018-Feb-13 08:24N 38°07' W 076°31'0 0.0
2018-Feb-13 07:59N 38°07' W 076°31'0 0.0
2018-Feb-13 07:19N 38°07' W 076°31'0 0.0
2018-Feb-13 06:54N 38°07' W 076°31'0 0.0
2018-Feb-13 06:11N 38°07' W 076°31'0 0.0
2018-Feb-13 05:51N 38°07' W 076°31'0 0.2
2018-Feb-13 05:24N 38°07' W 076°31'0 0.0
2018-Feb-13 05:00N 38°07' W 076°31'0 0.0
2018-Feb-13 04:07N 38°07' W 076°31'0 0.1
2018-Feb-13 03:59N 38°07' W 076°31'0 0.0
2018-Feb-13 03:27N 38°07' W 076°31'0 0.0
2018-Feb-12 20:34N 38°07' W 076°31'1 2.1
2018-Feb-12 20:12N 38°06' W 076°30'2 8.0
2018-Feb-12 20:00N 38°05' W 076°29'5 8.6
2018-Feb-12 19:28N 38°02' W 076°24'41 7.4
2018-Feb-12 13:56N 38°43' W 076°27'410.0
2018-Feb-12 13:30N 38°48' W 076°25'510.1
2018-Feb-12 13:00N 38°52' W 076°24'510.1
2018-Feb-12 12:29N 38°58' W 076°23'5 9.9
2018-Feb-12 11:56N 39°03' W 076°21'4 9.2
2018-Feb-12 11:29N 39°06' W 076°18'16 8.1
2018-Feb-12 09:32N 39°21' W 076°10'2 8.5
2018-Feb-12 09:15N 39°22' W 076°08'4 8.7
2018-Feb-12 08:51N 39°24' W 076°04'3 8.7
2018-Feb-12 08:30N 39°26' W 076°01'4 8.1
2018-Feb-12 08:00N 39°29' W 075°57'4 7.2
2018-Feb-12 07:30N 39°31' W 075°54'3 6.2
2018-Feb-12 07:00N 39°32' W 075°50'3 6.4
2018-Feb-12 06:30N 39°32' W 075°46'4 7.8
2018-Feb-12 06:00N 39°33' W 075°41'4 7.8
2018-Feb-12 05:30N 39°33' W 075°36'3 5.1
2018-Feb-12 05:00N 39°33' W 075°33'2 4.3
2018-Feb-12 04:30N 39°30' W 075°33'2 4.4
2018-Feb-12 04:00N 39°28' W 075°34'2 4.8
2018-Feb-12 03:30N 39°26' W 075°32'3 6.7
2018-Feb-12 03:00N 39°24' W 075°29'4 7.0
2018-Feb-12 02:30N 39°21' W 075°26'4 7.2
2018-Feb-12 02:00N 39°18' W 075°23'4 7.4
2018-Feb-12 01:30N 39°16' W 075°20'4 7.6
2018-Feb-12 00:57N 39°12' W 075°17'4 7.7
2018-Feb-12 00:27N 39°09' W 075°14'5 7.8
2018-Feb-11 23:50N 39°05' W 075°11'58 5.6
2018-Feb-11 13:34N 39°33' W 074°06'1 8.5
2018-Feb-11 13:27N 39°34' W 074°06'4 8.4
2018-Feb-11 13:00N 39°38' W 074°03'4 8.3
2018-Feb-11 12:30N 39°41' W 074°01'48 8.5
2018-Feb-11 06:48N 40°29' W 073°56'3 7.8
2018-Feb-11 06:29N 40°31' W 073°59'3 6.8
2018-Feb-11 05:58N 40°33' W 074°02'2 4.3
2018-Feb-11 05:30N 40°35' W 074°01'0 0.1
2018-Feb-11 05:00N 40°35' W 074°01'4 7.9
2018-Feb-11 04:30N 40°38' W 074°04'3 4.9
2018-Feb-11 03:59N 40°39' W 074°07'0 0.0
2018-Feb-11 03:30N 40°39' W 074°07'0 0.0
2018-Feb-11 03:00N 40°39' W 074°07'0 0.0
2018-Feb-11 02:24N 40°39' W 074°07'0 0.0
2018-Feb-11 02:00N 40°39' W 074°07'0 0.0
2018-Feb-11 01:29N 40°39' W 074°07'2 5.2
2018-Feb-11 01:00N 40°38' W 074°04'4 7.2
2018-Feb-11 00:30N 40°35' W 074°01'1 1.1
2018-Feb-11 00:00N 40°36' W 074°02'2 3.8
2018-Feb-10 23:30N 40°37' W 074°03'4 8.3
2018-Feb-10 23:00N 40°41' W 074°02'4 8.6
2018-Feb-10 22:30N 40°45' W 074°01'4 8.4
2018-Feb-10 22:00N 40°49' W 073°58'4 8.3
2018-Feb-10 21:29N 40°53' W 073°56'1 0.0
2018-Feb-09 15:00N 40°52' W 073°57'10 6.5
2018-Feb-09 13:30N 40°43' W 074°01'3 7.0
2018-Feb-09 13:00N 40°39' W 074°03'  

Dump ship's entire track history